Search for airport 
image banner adimage banner adimage banner ad
image banner ad

9CA2 - Pioneers Memorial Hospital

Located in Brawley, United States

ICAO - 9CA2, IATA -

Data provided by Airmate  

General information

Coordinates: N32°57'30" W115°33'11"
Elevation is -99 feet MSL.
Magnetic variation is 13° East
View others Airports in California

Operational data

Special qualification required
Current time UTC:
Current local time:
Weather at : KIPL - Imperial County ( 14 km )
METAR: KIPL 291553Z AUTO 34006KT 9SM CLR 37/13 A2979 RMK AO2 SLP088 T03720128
TAF: KIPL 291124Z 2912/3012 VRB05KT P6SM SCT250 FM292000 16008KT P6SM FEW100 BKN250 FM301000 16014KT P6SM VCSH SCT080 SCT150 OVC250
View NOTAMs / SUP AIP / TFR affecting this airport [VIEW]
Communications frequencies: [VIEW]

Runways:

Airport contact information

Address: Brawley United States

Satellite view of 9CA2